Time;durP1;ratioP1;P1;durP2;ratioP2;P2;SDS_P1;SDS_P2;PMS_P1;PMS_P2;Temp;Humidity;BMP_temperature;BMP_pressure;BME280_temperature;BME280_humidity;BME280_pressure;Samples;Min_cycle;Max_cycle;Signal;HPM_P1;HPM_P2
2022/08/15 00:01:55;;;;;;;;;;;;;;;17.54;48.25;99821.94;5067378;28;986;-52
2022/08/15 00:04:20;;;;;;;;;;;;;;;17.28;47.93;99829.84;5074051;28;981;-55
2022/08/15 00:06:46;;;;;;;;;;;;;;;17.25;47.43;99825.78;5061607;28;1243;-55
2022/08/15 00:09:13;;;;;;;;;;;;;;;17.23;47.00;99822.50;5075194;28;1035;-55
2022/08/15 00:11:40;;;;;;;;;;;;;;;17.16;46.84;99826.75;5074619;28;1276;-55
2022/08/15 00:14:05;;;;;;;;;;;;;;;17.13;46.75;99817.19;5068759;28;862;-55
2022/08/15 00:16:33;;;;;;;;;;;;;;;17.08;46.44;99809.84;5058534;28;1310;-55
2022/08/15 00:18:59;;;;;;;;;;;;;;;17.01;46.58;99809.44;5061525;28;1976;-56
2022/08/15 00:21:25;;;;;;;;;;;;;;;17.11;46.15;99813.94;5076213;28;1005;-54
2022/08/15 00:23:51;;;;;;;;;;;;;;;17.06;45.86;99805.78;5075356;28;1194;-53
2022/08/15 00:26:17;;;;;;;;;;;;;;;17.05;46.17;99791.22;5063119;28;855;-54
2022/08/15 00:28:42;;;;;;;;;;;;;;;17.02;46.09;99794.56;5049325;28;1005;-54
2022/08/15 00:31:08;;;;;;;;;;;;;;;17.94;46.73;99794.00;5056675;28;1489;-54
2022/08/15 00:33:33;;;;;;;;;;;;;;;17.39;47.43;99789.25;5069198;28;1195;-55
2022/08/15 00:35:59;;;;;;;;;;;;;;;17.18;47.25;99786.06;5057956;28;1259;-54
2022/08/15 00:38:26;;;;;;;;;;;;;;;17.14;46.90;99793.28;5063400;28;1902;-57
2022/08/15 00:43:38;;;;;;;;;;;;;;;18.48;47.11;99799.72;5040118;28;1109;-53
2022/08/15 00:46:04;;;;;;;;;;;;;;;14.41;56.96;99799.06;5051893;28;1251;-55
2022/08/15 00:48:41;;;;;;;;;;;;;;;16.45;50.08;99791.84;5075699;28;1132;-56
2022/08/15 00:51:13;;;;;;;;;;;;;;;17.37;49.87;99795.06;5062604;28;900;-48
2022/08/15 00:53:38;;;;;;;;;;;;;;;17.09;49.17;99785.94;5070031;28;973;-55
2022/08/15 00:56:05;;;;;;;;;;;;;;;17.08;48.20;99781.56;5069066;28;1032;-54
2022/08/15 00:58:30;;;;;;;;;;;;;;;17.04;47.60;99786.84;5058969;28;1909;-53
2022/08/15 01:00:55;;;;;;;;;;;;;;;16.95;47.65;99788.66;5071537;28;966;-54
2022/08/15 01:03:32;;;;;;;;;;;;;;;16.96;47.22;99794.94;5053642;28;1143;-55
2022/08/15 01:05:59;;;;;;;;;;;;;;;18.05;48.42;99795.41;5043118;28;1582;-54
2022/08/15 01:08:26;;;;;;;;;;;;;;;17.44;48.92;99802.91;5065439;28;1132;-56
2022/08/15 01:10:53;;;;;;;;;;;;;;;17.26;48.38;99810.09;5070904;28;1195;-55
2022/08/15 01:13:19;;;;;;;;;;;;;;;17.17;47.79;99811.91;5074018;28;1067;-56
2022/08/15 01:15:44;;;;;;;;;;;;;;;17.06;47.68;99816.75;5055878;28;1210;-54
2022/08/15 01:18:10;;;;;;;;;;;;;;;17.07;47.28;99810.97;5057319;28;1989;-55
2022/08/15 01:20:36;;;;;;;;;;;;;;;17.03;46.97;99818.19;5056262;28;1167;-54
2022/08/15 01:23:13;;;;;;;;;;;;;;;16.99;46.79;99822.63;5042358;28;1311;-53
2022/08/15 01:25:43;;;;;;;;;;;;;;;18.11;47.68;99824.44;5055130;28;1139;-55
2022/08/15 01:28:18;;;;;;;;;;;;;;;17.41;48.75;99822.75;5041116;28;1002;-56
2022/08/15 01:30:48;;;;;;;;;;;;;;;17.24;47.94;99815.09;5067676;28;1024;-53
2022/08/15 01:33:14;;;;;;;;;;;;;;;17.26;47.43;99832.91;5067866;28;992;-53
2022/08/15 01:35:39;;;;;;;;;;;;;;;17.22;46.98;99826.38;5052166;28;1408;-53
2022/08/15 01:38:05;;;;;;;;;;;;;;;17.20;46.58;99830.53;5069385;28;1913;-53
2022/08/15 01:40:34;;;;;;;;;;;;;;;17.11;46.57;99833.16;5046946;28;1167;-51
2022/08/15 01:42:59;;;;;;;;;;;;;;;17.00;46.64;99840.75;5072946;28;1124;-51
2022/08/15 01:45:26;;;;;;;;;;;;;;;17.41;47.27;99837.31;5055715;28;1098;-53
2022/08/15 01:47:58;;;;;;;;;;;;;;;17.83;48.08;99831.06;5038218;28;1142;-55
2022/08/15 01:50:28;;;;;;;;;;;;;;;17.36;48.13;99837.41;5055454;28;1209;-53
2022/08/15 01:53:12;;;;;;;;;;;;;;;17.31;47.55;99840.25;5058259;28;1235;-53
2022/08/15 01:55:47;;;;;;;;;;;;;;;17.22;47.02;99847.53;5055079;28;1296;-53
2022/08/15 01:58:13;;;;;;;;;;;;;;;17.11;46.96;99844.16;5051576;28;1968;-56
2022/08/15 02:00:41;;;;;;;;;;;;;;;17.11;46.59;99841.41;5074564;28;989;-57
2022/08/15 02:03:06;;;;;;;;;;;;;;;17.13;46.62;99846.59;5045747;28;1258;-57
2022/08/15 02:05:31;;;;;;;;;;;;;;;18.24;47.47;99838.50;5040687;28;1298;-56
2022/08/15 02:07:57;;;;;;;;;;;;;;;14.45;57.38;99830.22;5057243;28;1129;-56
2022/08/15 02:10:23;;;;;;;;;;;;;;;18.32;50.47;99846.03;5058183;28;1146;-57
2022/08/15 02:12:50;;;;;;;;;;;;;;;16.34;55.17;99837.84;5060143;28;1170;-53
2022/08/15 02:15:19;;;;;;;;;;;;;;;15.86;54.68;99840.59;5071797;28;1266;-52
2022/08/15 02:17:44;;;;;;;;;;;;;;;16.82;50.39;99836.88;5079668;28;1096;-54
2022/08/15 02:20:10;;;;;;;;;;;;;;;16.94;48.96;99836.44;5051237;28;1984;-53
2022/08/15 02:22:36;;;;;;;;;;;;;;;17.98;50.77;99836.28;5053225;28;1219;-53
2022/08/15 02:25:04;;;;;;;;;;;;;;;17.42;50.27;99833.44;5054528;28;1379;-52
2022/08/15 02:27:31;;;;;;;;;;;;;;;17.27;49.39;99839.22;5069532;28;906;-53
2022/08/15 02:29:56;;;;;;;;;;;;;;;17.24;48.44;99848.06;5047899;28;1421;-53
2022/08/15 02:32:22;;;;;;;;;;;;;;;17.10;48.08;99854.31;5055123;28;1285;-50
2022/08/15 02:34:51;;;;;;;;;;;;;;;17.17;47.54;99844.88;5058747;28;1386;-51
2022/08/15 02:37:18;;;;;;;;;;;;;;;17.07;47.17;99857.66;5057914;28;1179;-53
2022/08/15 02:39:46;;;;;;;;;;;;;;;17.03;47.17;99847.59;5045797;28;1983;-54
2022/08/15 02:42:12;;;;;;;;;;;;;;;17.03;46.87;99853.06;5072728;28;1156;-53
2022/08/15 02:44:37;;;;;;;;;;;;;;;16.95;46.89;99851.00;5057548;28;1156;-52
2022/08/15 02:47:07;;;;;;;;;;;;;;;16.93;46.79;99849.38;5059114;28;1847;-54
2022/08/15 02:49:33;;;;;;;;;;;;;;;17.66;47.70;99846.22;5045967;28;1631;-54
2022/08/15 02:52:00;;;;;;;;;;;;;;;17.52;48.67;99857.19;5053773;28;1290;-54
2022/08/15 02:54:26;;;;;;;;;;;;;;;17.31;48.06;99847.69;5063683;28;1301;-53
2022/08/15 02:56:54;;;;;;;;;;;;;;;17.15;47.78;99852.59;5048228;28;1314;-56
2022/08/15 02:59:19;;;;;;;;;;;;;;;17.05;47.28;99848.88;5071724;28;1917;-56
2022/08/15 03:01:45;;;;;;;;;;;;;;;17.08;46.97;99855.72;5053643;28;1150;-57
2022/08/15 03:04:14;;;;;;;;;;;;;;;17.09;46.87;99849.91;5045975;28;1162;-56
2022/08/15 03:06:42;;;;;;;;;;;;;;;16.93;46.99;99859.53;5055794;28;1230;-56
2022/08/15 03:09:08;;;;;;;;;;;;;;;17.58;47.39;99853.22;5051985;28;1171;-57
2022/08/15 03:11:41;;;;;;;;;;;;;;;17.71;48.78;99861.78;5050522;28;1458;-56
2022/08/15 03:14:08;;;;;;;;;;;;;;;17.34;48.51;99858.06;5052338;28;1284;-55
2022/08/15 03:16:35;;;;;;;;;;;;;;;17.31;47.72;99864.97;5053518;28;1177;-56
2022/08/15 03:19:01;;;;;;;;;;;;;;;17.19;47.36;99859.94;5056631;28;1973;-56
2022/08/15 03:21:26;;;;;;;;;;;;;;;17.16;47.19;99866.03;5048006;28;1254;-55
2022/08/15 03:23:53;;;;;;;;;;;;;;;17.05;46.80;99865.38;5077904;28;1305;-56
2022/08/15 03:26:21;;;;;;;;;;;;;;;16.98;46.72;99869.63;5048897;28;1294;-55
2022/08/15 03:28:46;;;;;;;;;;;;;;;18.31;47.54;99871.91;5047261;28;1089;-54
2022/08/15 03:31:12;;;;;;;;;;;;;;;14.57;56.53;99871.75;5067855;28;1140;-58
2022/08/15 03:33:39;;;;;;;;;;;;;;;17.60;51.28;99863.94;5055674;28;1126;-57
2022/08/15 03:36:05;;;;;;;;;;;;;;;17.29;52.76;99858.94;5053419;28;1582;-56
2022/08/15 03:38:30;;;;;;;;;;;;;;;15.29;56.92;99860.34;5056073;28;1985;-55
2022/08/15 03:40:56;;;;;;;;;;;;;;;18.07;52.30;99867.44;5052164;28;1224;-55
2022/08/15 03:43:27;;;;;;;;;;;;;;;14.82;59.37;99868.06;5058940;28;1365;-56
2022/08/15 03:45:58;;;;;;;;;;;;;;;16.46;55.28;99875.00;5046311;28;1115;-54
2022/08/15 03:48:29;;;;;;;;;;;;;;;17.72;53.04;99877.97;5058113;28;1338;-55
2022/08/15 03:50:55;;;;;;;;;;;;;;;17.33;51.66;99875.66;5050612;28;1263;-58
2022/08/15 03:53:21;;;;;;;;;;;;;;;17.19;50.52;99870.91;5046133;28;1434;-54
2022/08/15 03:55:47;;;;;;;;;;;;;;;17.07;49.74;99862.34;5046840;28;1292;-55
2022/08/15 03:58:13;;;;;;;;;;;;;;;17.07;48.89;99863.16;5047503;28;1905;-57
2022/08/15 04:00:43;;;;;;;;;;;;;;;17.05;48.54;99854.38;5063121;28;1025;-57
2022/08/15 04:03:10;;;;;;;;;;;;;;;17.02;47.84;99854.19;5049075;28;1182;-58
2022/08/15 04:05:36;;;;;;;;;;;;;;;17.00;47.65;99853.66;5053910;28;1334;-57
2022/08/15 04:08:05;;;;;;;;;;;;;;;17.52;48.53;99848.94;5053362;28;1141;-58
2022/08/15 04:10:31;;;;;;;;;;;;;;;17.59;50.00;99856.78;5055465;28;1234;-59
2022/08/15 04:12:57;;;;;;;;;;;;;;;17.27;49.25;99852.94;5074083;28;969;-59
2022/08/15 04:15:23;;;;;;;;;;;;;;;17.24;48.62;99851.59;5051883;28;1216;-59
2022/08/15 04:17:48;;;;;;;;;;;;;;;17.21;47.89;99854.97;5050135;28;1308;-59
2022/08/15 04:20:14;;;;;;;;;;;;;;;17.10;47.60;99850.75;5055003;28;1913;-59
2022/08/15 04:22:41;;;;;;;;;;;;;;;17.05;47.28;99859.88;5061131;28;1128;-59
2022/08/15 04:25:12;;;;;;;;;;;;;;;17.10;46.90;99850.75;5050730;28;1380;-59
2022/08/15 04:27:38;;;;;;;;;;;;;;;17.01;47.11;99847.03;5052426;28;1145;-59
2022/08/15 04:30:04;;;;;;;;;;;;;;;16.95;46.96;99846.31;5048660;28;1129;-59
2022/08/15 04:32:29;;;;;;;;;;;;;;;17.49;47.56;99846.81;5052131;28;1139;-59
2022/08/15 04:34:55;;;;;;;;;;;;;;;17.85;48.88;99848.06;5073869;28;988;-59
2022/08/15 04:37:22;;;;;;;;;;;;;;;17.40;48.79;99835.69;5053664;28;1495;-59
2022/08/15 04:39:50;;;;;;;;;;;;;;;17.30;48.10;99844.09;5054526;28;1983;-59
2022/08/15 04:42:18;;;;;;;;;;;;;;;17.26;47.95;99838.41;5026467;28;1184;-59
2022/08/15 04:44:44;;;;;;;;;;;;;;;17.23;47.53;99849.16;5073166;28;1100;-58
2022/08/15 04:47:09;;;;;;;;;;;;;;;17.13;47.37;99839.16;5073760;28;1060;-58
2022/08/15 04:49:35;;;;;;;;;;;;;;;17.09;47.02;99838.13;5072735;28;1151;-60
2022/08/15 04:52:05;;;;;;;;;;;;;;;17.05;46.98;99848.88;5050589;28;1167;-59
2022/08/15 04:54:31;;;;;;;;;;;;;;;17.06;46.94;99855.22;5071229;28;1139;-58
2022/08/15 04:57:09;;;;;;;;;;;;;;;17.04;46.53;99861.00;5058242;28;1420;-58
2022/08/15 04:59:36;;;;;;;;;;;;;;;17.02;46.53;99859.66;5068290;28;1977;-58
2022/08/15 05:02:03;;;;;;;;;;;;;;;16.98;46.54;99851.19;5049525;28;1045;-59
2022/08/15 05:04:29;;;;;;;;;;;;;;;16.98;46.52;99848.47;5048191;28;1134;-59
2022/08/15 05:06:54;;;;;;;;;;;;;;;17.00;46.69;99848.16;5047319;28;1126;-57
2022/08/15 05:09:20;;;;;;;;;;;;;;;17.09;47.22;99841.69;5047053;28;1273;-58
2022/08/15 05:11:45;;;;;;;;;;;;;;;17.92;48.29;99843.00;5066655;28;1128;-58
2022/08/15 05:14:11;;;;;;;;;;;;;;;17.40;48.76;99843.94;5042118;28;1226;-58
2022/08/15 05:16:36;;;;;;;;;;;;;;;17.24;48.05;99839.81;5041959;28;1291;-58
2022/08/15 05:19:05;;;;;;;;;;;;;;;17.08;47.82;99831.00;5049457;28;1980;-58
2022/08/15 05:21:32;;;;;;;;;;;;;;;17.13;47.70;99843.84;5040143;28;1286;-57
2022/08/15 05:23:58;;;;;;;;;;;;;;;17.30;47.67;99833.09;5039907;28;1338;-58
2022/08/15 05:26:27;;;;;;;;;;;;;;;17.64;48.58;99837.44;5047156;28;1382;-57
2022/08/15 05:28:52;;;;;;;;;;;;;;;17.31;48.52;99845.72;5041923;28;1218;-57
2022/08/15 05:31:18;;;;;;;;;;;;;;;17.23;47.77;99854.66;5059014;28;1321;-57
2022/08/15 05:33:45;;;;;;;;;;;;;;;17.13;47.61;99849.34;5040904;28;1246;-57
2022/08/15 05:36:11;;;;;;;;;;;;;;;17.13;47.32;99855.66;5058231;28;1037;-57
2022/08/15 05:38:58;;;;;;;;;;;;;;;17.16;46.98;99856.97;5042303;28;1959;-57
2022/08/15 05:41:40;;;;;;;;;;;;;;;17.09;46.99;99854.59;5047921;28;1438;-57
2022/08/15 05:44:20;;;;;;;;;;;;;;;17.06;46.94;99855.22;5059516;28;1399;-58
2022/08/15 05:46:57;;;;;;;;;;;;;;;18.23;45.83;99854.22;5050653;28;1127;-58
2022/08/15 05:49:24;;;;;;;;;;;;;;;18.33;46.09;99841.34;5041871;28;1112;-58
2022/08/15 05:51:54;;;;;;;;;;;;;;;18.06;47.03;99846.56;5032127;28;1195;-58
2022/08/15 05:54:28;;;;;;;;;;;;;;;17.94;47.89;99838.00;5052205;28;1449;-58
2022/08/15 05:57:09;;;;;;;;;;;;;;;17.86;48.59;99844.19;5037854;28;1203;-57
2022/08/15 05:59:39;;;;;;;;;;;;;;;17.75;49.02;99849.91;5040644;28;1976;-58
2022/08/15 06:02:06;;;;;;;;;;;;;;;17.71;49.49;99837.88;5023995;28;1256;-58
2022/08/15 06:04:37;;;;;;;;;;;;;;;17.61;49.71;99844.38;5025059;28;1334;-59
2022/08/15 06:07:06;;;;;;;;;;;;;;;17.56;49.90;99843.66;5041980;28;1383;-59
2022/08/15 06:09:31;;;;;;;;;;;;;;;17.54;50.52;99856.88;5027725;28;1329;-59
2022/08/15 06:11:58;;;;;;;;;;;;;;;17.51;50.86;99857.50;5054893;28;1267;-59
2022/08/15 06:14:28;;;;;;;;;;;;;;;17.45;51.10;99859.50;5053920;28;1235;-58
2022/08/15 06:16:55;;;;;;;;;;;;;;;17.43;51.17;99859.81;5047851;28;1537;-58
2022/08/15 06:19:23;;;;;;;;;;;;;;;17.40;51.36;99860.44;5024784;28;1910;-59
2022/08/15 06:22:09;;;;;;;;;;;;;;;17.35;51.75;99867.91;5050619;28;1612;-58
2022/08/15 06:24:54;;;;;;;;;;;;;;;17.33;52.04;99870.16;5047570;28;1130;-58
2022/08/15 06:27:29;;;;;;;;;;;;;;;17.31;52.04;99864.97;5044415;28;1671;-58
2022/08/15 06:30:04;;;;;;;;;;;;;;;17.24;52.50;99862.59;5043526;28;1212;-59
2022/08/15 06:32:41;;;;;;;;;;;;;;;17.23;52.80;99862.91;5053220;28;1398;-58
2022/08/15 06:35:14;;;;;;;;;;;;;;;17.18;52.73;99874.81;5059265;28;993;-58
2022/08/15 06:37:50;;;;;;;;;;;;;;;17.18;53.01;99884.94;5058049;28;1001;-58
2022/08/15 06:40:20;;;;;;;;;;;;;;;17.16;53.02;99881.72;5055447;28;1900;-59
2022/08/15 06:42:46;;;;;;;;;;;;;;;17.12;53.28;99880.66;5058771;28;1245;-59
2022/08/15 06:45:19;;;;;;;;;;;;;;;17.09;53.56;99880.13;5056838;28;1316;-59
2022/08/15 06:47:45;;;;;;;;;;;;;;;17.07;53.60;99887.88;5054636;28;1100;-59
2022/08/15 06:50:13;;;;;;;;;;;;;;;17.03;53.64;99895.06;5038184;28;1142;-58
2022/08/15 06:52:39;;;;;;;;;;;;;;;17.04;53.70;99882.16;5028580;28;1130;-58
2022/08/15 06:55:05;;;;;;;;;;;;;;;17.03;53.76;99889.59;5058287;28;1221;-58
2022/08/15 06:57:52;;;;;;;;;;;;;;;17.02;53.76;99879.69;5059999;28;1273;-58
2022/08/15 07:00:29;;;;;;;;;;;;;;;16.99;53.96;99899.53;5053695;28;1913;-58
2022/08/15 07:03:04;;;;;;;;;;;;;;;16.99;54.06;99891.28;5044956;28;1542;-58
2022/08/15 07:05:50;;;;;;;;;;;;;;;16.97;54.11;99899.03;5050558;28;1433;-59
2022/08/15 07:08:36;;;;;;;;;;;;;;;16.96;54.12;99897.38;5043561;28;1347;-58
2022/08/15 07:11:14;;;;;;;;;;;;;;;16.97;54.19;99901.78;5047034;28;3159;-58
2022/08/15 07:13:55;;;;;;;;;;;;;;;16.90;54.44;99893.06;5047364;28;1889;-58
2022/08/15 07:16:39;;;;;;;;;;;;;;;16.92;54.47;99899.09;5054731;28;2104;-58
2022/08/15 07:19:06;;;;;;;;;;;;;;;16.87;54.79;99897.22;5050174;28;2102;-57
2022/08/15 07:21:44;;;;;;;;;;;;;;;16.88;54.62;99892.53;5059071;28;2035;-57
2022/08/15 07:24:16;;;;;;;;;;;;;;;16.88;54.58;99895.28;5053226;28;2211;-58
2022/08/15 07:26:46;;;;;;;;;;;;;;;16.87;54.69;99897.22;5048085;28;2122;-57
2022/08/15 07:29:17;;;;;;;;;;;;;;;16.86;54.42;99897.50;5043389;28;1319;-57
2022/08/15 07:31:44;;;;;;;;;;;;;;;16.83;54.71;99898.09;5063628;28;1140;-57
2022/08/15 07:34:20;;;;;;;;;;;;;;;16.84;54.93;99897.78;5039594;28;1236;-58
2022/08/15 07:36:57;;;;;;;;;;;;;;;16.83;54.71;99906.31;5043429;28;1306;-56
2022/08/15 07:39:49;;;;;;;;;;;;;;;16.80;55.05;99907.72;5059454;28;1979;-56
2022/08/15 07:42:19;;;;;;;;;;;;;;;16.77;54.87;99909.16;5047212;28;1684;-58
2022/08/15 07:45:07;;;;;;;;;;;;;;;16.79;54.98;99902.53;5048298;28;1168;-56
2022/08/15 07:47:34;;;;;;;;;;;;;;;16.80;55.02;99907.72;5057122;28;989;-58
2022/08/15 07:50:01;;;;;;;;;;;;;;;16.76;54.89;99907.53;5041703;28;1215;-57
2022/08/15 07:52:26;;;;;;;;;;;;;;;16.74;55.20;99919.91;5043685;28;1093;-59
2022/08/15 07:54:53;;;;;;;;;;;;;;;16.73;54.94;99919.09;5047143;28;1243;-56
2022/08/15 07:57:29;;;;;;;;;;;;;;;16.76;54.87;99926.75;5056712;28;1995;-57
2022/08/15 08:00:14;;;;;;;;;;;;;;;16.69;55.11;99915.31;5074322;28;1906;-58
2022/08/15 08:02:54;;;;;;;;;;;;;;;16.68;55.38;99915.59;5039991;28;1249;-57
2022/08/15 08:05:21;;;;;;;;;;;;;;;16.73;55.03;99913.59;5048722;28;1250;-58
2022/08/15 08:07:48;;;;;;;;;;;;;;;16.72;55.17;99922.13;5040649;28;1465;-58
2022/08/15 08:10:27;;;;;;;;;;;;;;;16.72;55.08;99922.94;5048778;28;1132;-59
2022/08/15 08:12:57;;;;;;;;;;;;;;;16.68;54.80;99919.16;5056262;28;1227;-59
2022/08/15 08:15:44;;;;;;;;;;;;;;;16.64;55.07;99915.38;5056357;28;1369;-59
2022/08/15 08:18:16;;;;;;;;;;;;;;;16.66;55.25;99924.13;5045624;28;1437;-58
2022/08/15 08:20:45;;;;;;;;;;;;;;;16.64;55.22;99915.38;5052218;28;1981;-58
2022/08/15 08:23:14;;;;;;;;;;;;;;;17.37;55.08;99907.72;5038827;28;1334;-57
2022/08/15 08:25:42;;;;;;;;;;;;;;;17.68;55.02;99909.94;5045997;28;1091;-59
2022/08/15 08:28:18;;;;;;;;;;;;;;;17.26;55.93;99898.84;5043864;28;1896;-59
2022/08/15 08:30:44;;;;;;;;;;;;;;;17.09;56.05;99899.38;5051729;28;1310;-58
2022/08/15 08:33:22;;;;;;;;;;;;;;;17.01;55.72;99899.22;5068046;28;1171;-57
2022/08/15 08:36:20;;;;;;;;;;;;;;;16.97;55.78;99907.25;5064156;28;1075;-56
2022/08/15 08:38:51;;;;;;;;;;;;;;;16.94;55.46;99907.84;5040329;28;1922;-54
2022/08/15 08:41:34;;;;;;;;;;;;;;;16.90;55.45;99906.78;5041912;28;1326;-59
2022/08/15 08:44:16;;;;;;;;;;;;;;;16.89;55.30;99899.69;5063866;28;1389;-59
2022/08/15 08:46:41;;;;;;;;;;;;;;;16.84;55.52;99895.03;5059219;28;1176;-57
2022/08/15 08:49:25;;;;;;;;;;;;;;;16.82;55.28;99889.03;5058703;28;1306;-59
2022/08/15 08:51:57;;;;;;;;;;;;;;;16.82;55.21;99886.28;5042925;28;1041;-58
2022/08/15 08:54:29;;;;;;;;;;;;;;;16.79;55.43;99883.31;5059340;28;1459;-59
2022/08/15 08:56:55;;;;;;;;;;;;;;;16.82;55.07;99891.78;5058630;28;2284;-59
2022/08/15 08:59:23;;;;;;;;;;;;;;;16.79;55.21;99894.31;5040256;28;1906;-58
2022/08/15 09:02:07;;;;;;;;;;;;;;;16.80;55.04;99896.75;5064967;28;1304;-59
2022/08/15 09:04:37;;;;;;;;;;;;;;;16.78;55.29;99898.97;5058380;28;1113;-57
2022/08/15 09:07:03;;;;;;;;;;;;;;;16.79;55.14;99903.38;5044405;28;1291;-58
2022/08/15 09:09:30;;;;;;;;;;;;;;;16.75;55.17;99905.06;5041927;28;1220;-58
2022/08/15 09:11:57;;;;;;;;;;;;;;;16.72;55.04;99900.19;5043293;28;1259;-59
2022/08/15 09:14:23;;;;;;;;;;;;;;;16.68;55.16;99897.19;5040768;28;1250;-58
2022/08/15 09:16:49;;;;;;;;;;;;;;;16.70;55.32;99900.44;5057943;28;1251;-58
2022/08/15 09:19:16;;;;;;;;;;;;;;;16.71;55.17;99899.34;5041939;28;1906;-57
2022/08/15 09:21:42;;;;;;;;;;;;;;;17.02;55.55;99898.13;5059532;28;1266;-58
2022/08/15 09:24:07;;;;;;;;;;;;;;;17.71;55.39;99890.13;5059698;28;1290;-59
2022/08/15 09:26:56;;;;;;;;;;;;;;;17.27;56.29;99878.47;5059673;28;2483;-58
2022/08/15 09:29:21;;;;;;;;;;;;;;;17.09;56.38;99860.91;5052722;28;1386;-57
2022/08/15 09:31:55;;;;;;;;;;;;;;;17.06;56.18;99861.50;5059304;28;1317;-58
2022/08/15 09:34:24;;;;;;;;;;;;;;;17.03;55.88;99862.13;5041062;28;1228;-58
2022/08/15 09:37:08;;;;;;;;;;;;;;;16.95;55.97;99862.00;5061402;28;1277;-58
2022/08/15 09:39:52;;;;;;;;;;;;;;;16.93;55.81;99870.53;5038973;28;1977;-58
2022/08/15 09:42:23;;;;;;;;;;;;;;;16.97;55.55;99866.06;5060049;28;1387;-59
2022/08/15 09:45:08;;;;;;;;;;;;;;;16.93;55.54;99873.28;5042715;28;1176;-58
2022/08/15 09:47:39;;;;;;;;;;;;;;;16.91;55.77;99879.06;5059905;28;1195;-59
2022/08/15 09:50:07;;;;;;;;;;;;;;;16.86;55.55;99879.09;5042085;28;1259;-59
2022/08/15 09:52:34;;;;;;;;;;;;;;;16.82;55.85;99883.56;5059205;28;1187;-58
2022/08/15 09:55:19;;;;;;;;;;;;;;;16.83;55.67;99885.19;5062479;28;1037;-58
2022/08/15 09:57:46;;;;;;;;;;;;;;;16.83;55.70;99878.88;5066417;28;2365;-60
2022/08/15 10:00:15;;;;;;;;;;;;;;;16.80;55.66;99874.78;5048816;28;1968;-60
2022/08/15 10:02:40;;;;;;;;;;;;;;;16.79;55.69;99880.56;5060921;28;1139;-59
2022/08/15 10:05:23;;;;;;;;;;;;;;;16.82;55.40;99880.00;5068018;28;1040;-58
2022/08/15 10:07:48;;;;;;;;;;;;;;;16.79;55.33;99883.31;5059756;28;1286;-58
2022/08/15 10:10:40;;;;;;;;;;;;;;;16.78;55.71;99885.25;5056811;28;1013;-57
2022/08/15 10:13:10;;;;;;;;;;;;;;;16.79;55.39;99886.06;5067832;28;1213;-59
2022/08/15 10:15:41;;;;;;;;;;;;;;;16.77;55.25;99887.19;5070257;28;939;-57
2022/08/15 10:18:08;;;;;;;;;;;;;;;16.79;55.40;99880.56;5062580;28;1100;-58
2022/08/15 10:20:33;;;;;;;;;;;;;;;16.79;55.59;99889.66;5063918;28;1926;-58
2022/08/15 10:22:59;;;;;;;;;;;;;;;16.76;55.59;99884.75;5063479;28;1318;-58
2022/08/15 10:25:26;;;;;;;;;;;;;;;16.70;55.67;99881.22;5060311;28;1101;-56
2022/08/15 10:27:51;;;;;;;;;;;;;;;16.77;55.64;99891.84;5067425;28;2349;-57
2022/08/15 10:30:17;;;;;;;;;;;;;;;16.72;55.54;99895.50;5062979;28;1266;-58
2022/08/15 10:32:43;;;;;;;;;;;;;;;16.74;55.46;99895.19;5064257;28;1309;-59
2022/08/15 10:35:19;;;;;;;;;;;;;;;16.73;55.35;99888.91;5063025;28;1259;-58
2022/08/15 10:37:53;;;;;;;;;;;;;;;16.72;55.51;99890.00;5062755;28;1079;-58
2022/08/15 10:40:23;;;;;;;;;;;;;;;16.73;55.50;99891.66;5061614;28;1910;-59
2022/08/15 10:42:48;;;;;;;;;;;;;;;16.71;55.74;99887.56;5046804;28;1108;-60
2022/08/15 10:45:41;;;;;;;;;;;;;;;16.71;55.55;99888.38;5064748;28;1195;-58
2022/08/15 10:48:20;;;;;;;;;;;;;;;16.71;55.42;99893.84;5058814;28;1263;-59
2022/08/15 10:50:49;;;;;;;;;;;;;;;16.72;55.43;99883.72;5061329;28;1290;-59
2022/08/15 10:53:33;;;;;;;;;;;;;;;16.71;55.64;99882.88;5060531;28;1227;-59
2022/08/15 10:56:16;;;;;;;;;;;;;;;17.37;55.84;99883.00;5061321;28;1818;-60
2022/08/15 10:58:41;;;;;;;;;;;;;;;17.39;56.52;99896.44;5061808;28;1914;-58
2022/08/15 11:01:12;;;;;;;;;;;;;;;17.14;56.59;99884.75;5045944;28;1219;-58
2022/08/15 11:03:39;;;;;;;;;;;;;;;17.12;56.32;99888.91;5060018;28;1253;-59
2022/08/15 11:06:06;;;;;;;;;;;;;;;17.05;56.33;99903.81;5042421;28;1198;-59
2022/08/15 11:08:31;;;;;;;;;;;;;;;17.05;56.12;99892.84;5060506;28;1207;-59
2022/08/15 11:11:07;;;;;;;;;;;;;;;16.96;56.09;99904.78;5061563;28;1314;-58
2022/08/15 11:13:33;;;;;;;;;;;;;;;16.96;56.31;99900.13;5045282;28;1234;-58
2022/08/15 11:16:00;;;;;;;;;;;;;;;16.95;56.05;99900.44;5042056;28;1235;-58
2022/08/15 11:18:49;;;;;;;;;;;;;;;16.96;56.01;99900.13;5043251;28;1913;-57
2022/08/15 11:21:14;;;;;;;;;;;;;;;16.93;55.97;99906.22;5056123;28;1161;-58
2022/08/15 11:23:42;;;;;;;;;;;;;;;16.90;55.70;99902.13;5062601;28;1219;-58
2022/08/15 11:26:08;;;;;;;;;;;;;;;16.91;56.06;99895.53;5061793;28;2337;-58
2022/08/15 11:28:33;;;;;;;;;;;;;;;16.89;55.76;99900.50;5060784;28;966;-58
2022/08/15 11:31:07;;;;;;;;;;;;;;;16.87;55.79;99899.13;5046107;28;1469;-60
2022/08/15 11:33:40;;;;;;;;;;;;;;;16.91;55.62;99906.53;5061335;28;1036;-59
2022/08/15 11:36:17;;;;;;;;;;;;;;;16.87;55.90;99902.72;5074078;28;977;-59
2022/08/15 11:38:44;;;;;;;;;;;;;;;16.87;55.89;99890.88;5039744;28;2049;-60
2022/08/15 11:41:09;;;;;;;;;;;;;;;16.90;55.84;99895.81;5039570;28;1099;-60
2022/08/15 11:43:35;;;;;;;;;;;;;;;16.89;55.78;99895.00;5056325;28;1204;-58
2022/08/15 11:46:00;;;;;;;;;;;;;;;16.88;55.74;99898.84;5052189;28;1444;-58
2022/08/15 11:48:28;;;;;;;;;;;;;;;16.89;55.84;99888.72;5070031;28;969;-59
2022/08/15 11:50:55;;;;;;;;;;;;;;;16.85;55.60;99890.38;5073092;28;1026;-59
2022/08/15 11:53:20;;;;;;;;;;;;;;;16.83;55.77;99892.59;5071502;28;1126;-60
2022/08/15 11:55:46;;;;;;;;;;;;;;;16.82;55.86;99890.97;5064969;28;1012;-59
2022/08/15 11:58:11;;;;;;;;;;;;;;;16.83;55.68;99889.84;5071575;28;2623;-59
2022/08/15 12:00:37;;;;;;;;;;;;;;;16.84;55.70;99888.75;5066934;28;1902;-59
2022/08/15 12:03:21;;;;;;;;;;;;;;;16.84;55.68;99884.06;5076005;28;1131;-59
2022/08/15 12:05:47;;;;;;;;;;;;;;;16.80;55.91;99891.25;5070214;28;1056;-59
2022/08/15 12:08:12;;;;;;;;;;;;;;;16.81;55.74;99892.91;5055167;28;1121;-59
2022/08/15 12:10:41;;;;;;;;;;;;;;;16.80;55.80;99896.75;5061034;28;986;-59
2022/08/15 12:13:07;;;;;;;;;;;;;;;16.81;55.56;99889.34;5074601;28;1815;-59
2022/08/15 12:15:32;;;;;;;;;;;;;;;16.80;55.63;99895.94;5066731;28;1080;-59
2022/08/15 12:18:04;;;;;;;;;;;;;;;16.76;55.84;99893.00;5066490;28;982;-59
2022/08/15 12:20:47;;;;;;;;;;;;;;;16.79;55.75;99894.31;5061589;28;1982;-59
2022/08/15 12:23:28;;;;;;;;;;;;;;;16.78;55.51;99898.97;5062731;28;1040;-58
2022/08/15 12:25:56;;;;;;;;;;;;;;;16.76;55.59;99891.03;5064792;28;997;-58
2022/08/15 12:28:22;;;;;;;;;;;;;;;16.78;55.49;99890.75;5070305;28;1147;-58
2022/08/15 12:30:47;;;;;;;;;;;;;;;16.75;55.47;99885.84;5066466;28;1139;-58
2022/08/15 12:33:13;;;;;;;;;;;;;;;16.79;55.73;99883.31;5075247;28;1028;-58
2022/08/15 12:35:39;;;;;;;;;;;;;;;16.77;55.72;99880.88;5058067;28;1147;-58
2022/08/15 12:38:04;;;;;;;;;;;;;;;16.77;55.66;99870.72;5056956;28;1005;-57
2022/08/15 12:40:30;;;;;;;;;;;;;;;16.79;55.61;99872.34;5070745;28;1913;-54
2022/08/15 12:42:55;;;;;;;;;;;;;;;16.73;55.75;99861.44;5070599;28;1080;-57
2022/08/15 12:45:21;;;;;;;;;;;;;;;16.73;55.64;99857.88;5045005;28;1079;-54
2022/08/15 12:47:47;;;;;;;;;;;;;;;16.75;55.62;99855.66;5063684;28;981;-57
2022/08/15 12:50:12;;;;;;;;;;;;;;;16.74;55.72;99848.53;5049119;28;1080;-51
2022/08/15 12:52:37;;;;;;;;;;;;;;;16.76;55.70;99844.38;5058891;28;1060;-53
2022/08/15 12:55:04;;;;;;;;;;;;;;;16.72;55.51;99854.31;5060505;28;1285;-57
2022/08/15 12:57:29;;;;;;;;;;;;;;;16.79;55.73;99847.63;5060976;28;1812;-55
2022/08/15 12:59:54;;;;;;;;;;;;;;;16.74;55.50;99843.84;5057229;28;1909;-57
2022/08/15 13:02:20;;;;;;;;;;;;;;;16.77;55.83;99839.69;5059915;28;1223;-50
2022/08/15 13:04:47;;;;;;;;;;;;;;;16.80;55.49;99835.53;5059521;28;1227;-59
2022/08/15 13:07:13;;;;;;;;;;;;;;;16.74;55.63;99834.81;5063038;28;1196;-59
2022/08/15 13:09:38;;;;;;;;;;;;;;;16.76;55.76;99836.13;5058854;28;1255;-57
2022/08/15 13:12:04;;;;;;;;;;;;;;;16.74;55.86;99837.53;5058153;28;1250;-57
2022/08/15 13:14:30;;;;;;;;;;;;;;;16.75;55.88;99834.50;5060751;28;1250;-60